createdAt,value
2023-01-26T00:00:13.518Z,8.13
2023-01-26T00:03:01.354Z,7.17
2023-01-26T00:05:49.970Z,8.00
2023-01-26T00:08:38.379Z,7.60
2023-01-26T00:11:27.605Z,8.43
2023-01-26T00:14:15.282Z,8.27
2023-01-26T00:17:02.645Z,8.77
2023-01-26T00:19:50.058Z,8.33
2023-01-26T00:22:38.786Z,8.50
2023-01-26T00:25:26.523Z,9.00
2023-01-26T00:28:13.727Z,7.90
2023-01-26T00:31:04.509Z,7.17
2023-01-26T00:33:52.209Z,8.17
2023-01-26T00:36:39.499Z,7.53
2023-01-26T00:39:28.149Z,7.63
2023-01-26T00:42:16.024Z,7.10
2023-01-26T00:45:03.334Z,8.33
2023-01-26T00:47:51.603Z,6.50
2023-01-26T00:50:39.051Z,7.23
2023-01-26T00:53:26.393Z,8.03
2023-01-26T00:56:15.719Z,7.33
2023-01-26T00:59:03.163Z,6.93
2023-01-26T01:01:50.964Z,7.80
2023-01-26T01:04:38.268Z,7.83
2023-01-26T01:07:25.852Z,8.03
2023-01-26T01:10:13.656Z,8.07
2023-01-26T01:13:02.521Z,7.27
2023-01-26T01:15:50.238Z,7.10
2023-01-26T01:18:37.778Z,6.83
2023-01-26T01:21:26.168Z,7.77
2023-01-26T01:24:14.219Z,9.30
2023-01-26T01:27:01.499Z,8.97
2023-01-26T01:29:51.272Z,9.23
2023-01-26T01:32:39.906Z,8.20
2023-01-26T01:35:27.651Z,7.37
2023-01-26T01:38:14.874Z,7.97
2023-01-26T01:41:02.511Z,8.20
2023-01-26T01:43:49.921Z,8.90
2023-01-26T01:46:38.819Z,7.57
2023-01-26T01:49:28.265Z,8.67
2023-01-26T01:52:17.972Z,8.40
2023-01-26T01:55:07.466Z,7.60
2023-01-26T01:57:58.724Z,8.03
2023-01-26T02:00:46.431Z,8.63
2023-01-26T02:03:36.395Z,7.33
2023-01-26T02:06:25.182Z,8.77
2023-01-26T02:09:36.028Z,9.27
2023-01-26T02:12:33.010Z,8.37
2023-01-26T02:15:20.379Z,8.33
2023-01-26T02:18:10.937Z,9.03
2023-01-26T02:21:01.401Z,8.93
2023-01-26T02:23:52.746Z,8.77
2023-01-26T02:26:42.258Z,9.80
2023-01-26T02:29:30.009Z,9.03
2023-01-26T02:32:17.659Z,9.03
2023-01-26T02:35:05.877Z,9.77
2023-01-26T02:37:53.422Z,8.87
2023-01-26T02:40:43.617Z,8.77
2023-01-26T02:43:32.062Z,9.17
2023-01-26T02:46:19.485Z,8.40
2023-01-26T02:49:25.291Z,9.13
2023-01-26T02:52:12.630Z,8.33
2023-01-26T02:55:18.429Z,8.67
2023-01-26T02:58:07.607Z,7.13
2023-01-26T03:00:56.556Z,8.73
2023-01-26T03:03:45.149Z,7.80
2023-01-26T03:06:34.615Z,7.97
2023-01-26T03:09:22.017Z,8.07
2023-01-26T03:12:09.427Z,8.00
2023-01-26T03:15:14.701Z,8.50
2023-01-26T03:18:30.851Z,8.70
2023-01-26T03:21:36.146Z,8.77
2023-01-26T03:24:41.636Z,7.77
2023-01-26T03:27:29.376Z,8.90
2023-01-26T03:30:23.494Z,8.33
2023-01-26T03:33:12.877Z,8.83
2023-01-26T03:36:00.621Z,8.57
2023-01-26T03:38:48.076Z,9.50
2023-01-26T03:41:53.181Z,8.53
2023-01-26T03:44:58.409Z,10.17
2023-01-26T03:48:03.425Z,8.23
2023-01-26T03:51:09.736Z,9.33
2023-01-26T03:54:14.880Z,8.60
2023-01-26T03:57:02.131Z,9.17
2023-01-26T03:59:49.325Z,9.57
2023-01-26T04:02:58.125Z,9.17
2023-01-26T04:06:15.441Z,8.43
2023-01-26T04:09:06.410Z,8.57
2023-01-26T04:11:54.023Z,8.63
2023-01-26T04:14:59.114Z,8.50
2023-01-26T04:18:05.413Z,7.60
2023-01-26T04:21:10.619Z,8.57
2023-01-26T04:24:01.624Z,7.93
2023-01-26T04:26:51.101Z,7.70
2023-01-26T04:29:43.871Z,8.47
2023-01-26T04:32:31.330Z,7.43
2023-01-26T04:35:18.700Z,8.00
2023-01-26T04:38:08.155Z,8.93
2023-01-26T04:40:55.532Z,7.47
2023-01-26T04:43:44.876Z,7.37
2023-01-26T04:46:33.223Z,7.67
2023-01-26T04:49:21.924Z,8.07
2023-01-26T04:52:09.318Z,8.13
2023-01-26T04:54:57.414Z,8.40
2023-01-26T04:57:45.215Z,8.60
2023-01-26T05:00:33.843Z,8.60
2023-01-26T05:03:22.811Z,8.30
2023-01-26T05:06:10.298Z,7.40
2023-01-26T05:08:58.206Z,7.30
2023-01-26T05:11:46.801Z,8.03
2023-01-26T05:14:53.095Z,7.60
2023-01-26T05:18:04.452Z,6.90
2023-01-26T05:21:12.321Z,8.70
2023-01-26T05:24:03.472Z,8.20
2023-01-26T05:27:24.759Z,7.87
2023-01-26T05:30:16.519Z,7.77
2023-01-26T05:33:05.884Z,7.53
2023-01-26T05:35:54.787Z,11.47
2023-01-26T05:38:42.068Z,9.07
2023-01-26T05:41:30.494Z,11.60
2023-01-26T05:44:49.376Z,11.53
2023-01-26T05:47:37.110Z,13.80
2023-01-26T05:50:25.846Z,9.90
2023-01-26T05:53:33.699Z,8.37
2023-01-26T05:56:21.126Z,9.57
2023-01-26T05:59:15.131Z,8.03
2023-01-26T06:02:03.246Z,7.47
2023-01-26T06:04:50.610Z,7.27
2023-01-26T06:07:40.347Z,7.77
2023-01-26T06:10:41.198Z,7.70
2023-01-26T06:13:49.337Z,7.23
2023-01-26T06:16:44.114Z,7.20
2023-01-26T06:19:31.846Z,6.77
2023-01-26T06:22:21.792Z,7.13
2023-01-26T06:25:12.545Z,7.17
2023-01-26T06:28:00.808Z,7.30
2023-01-26T06:30:49.277Z,7.03
2023-01-26T06:33:38.168Z,7.30
2023-01-26T06:36:28.946Z,6.80
2023-01-26T06:39:18.188Z,7.00
2023-01-26T06:42:07.363Z,7.77
2023-01-26T06:44:54.741Z,7.17
2023-01-26T06:47:46.458Z,7.30
2023-01-26T06:50:35.080Z,6.77
2023-01-26T06:53:27.588Z,7.20
2023-01-26T06:56:36.992Z,6.83
2023-01-26T06:59:38.247Z,7.43
2023-01-26T07:02:44.429Z,6.23
2023-01-26T07:05:32.307Z,7.23
2023-01-26T07:08:19.918Z,6.67
2023-01-26T07:11:09.273Z,7.33
2023-01-26T07:13:56.705Z,6.80
2023-01-26T07:16:45.496Z,7.50
2023-01-26T07:19:33.877Z,5.77
2023-01-26T07:22:21.331Z,6.07
2023-01-26T07:25:09.290Z,7.03
2023-01-26T07:27:57.462Z,6.57
2023-01-26T07:30:45.173Z,5.83
2023-01-26T07:33:34.469Z,6.43
2023-01-26T07:36:22.342Z,5.67
2023-01-26T07:39:09.955Z,6.47
2023-01-26T07:41:57.749Z,6.13
2023-01-26T07:45:01.818Z,5.77
2023-01-26T07:47:49.266Z,5.70
2023-01-26T07:50:37.930Z,6.20
2023-01-26T07:53:27.587Z,6.33
2023-01-26T07:56:15.929Z,5.50
2023-01-26T07:59:03.949Z,6.30
2023-01-26T08:01:51.765Z,6.27
2023-01-26T08:04:39.209Z,6.13
2023-01-26T08:07:27.897Z,6.23
2023-01-26T08:10:15.669Z,5.43
2023-01-26T08:13:03.366Z,6.30
2023-01-26T08:15:50.831Z,5.97
2023-01-26T08:18:38.454Z,6.00
2023-01-26T08:21:25.803Z,6.43
2023-01-26T08:24:14.769Z,6.03
2023-01-26T08:27:02.028Z,6.63
2023-01-26T08:29:49.399Z,6.77
2023-01-26T08:32:36.793Z,6.03
2023-01-26T08:35:24.170Z,6.57
2023-01-26T08:38:11.481Z,5.87
2023-01-26T08:41:00.571Z,6.77
2023-01-26T08:43:48.200Z,6.17
2023-01-26T08:46:35.598Z,6.47
2023-01-26T08:49:22.968Z,7.20
2023-01-26T08:52:10.360Z,6.47
2023-01-26T08:55:00.507Z,6.13
2023-01-26T08:57:54.982Z,6.77
2023-01-26T09:00:42.489Z,7.00
2023-01-26T09:03:29.900Z,6.00
2023-01-26T09:06:17.336Z,5.67
2023-01-26T09:09:04.893Z,6.60
2023-01-26T09:11:52.311Z,6.83
2023-01-26T09:14:41.179Z,6.43
2023-01-26T09:17:28.560Z,6.67
2023-01-26T09:20:15.951Z,7.10
2023-01-26T09:23:03.539Z,6.40
2023-01-26T09:25:57.815Z,7.20
2023-01-26T09:28:53.991Z,6.40
2023-01-26T09:31:52.348Z,6.97
2023-01-26T09:34:39.899Z,6.40
2023-01-26T09:37:27.488Z,6.93
2023-01-26T09:40:18.220Z,6.47
2023-01-26T09:43:09.933Z,6.10
2023-01-26T09:46:02.474Z,6.47
2023-01-26T09:48:57.453Z,6.67
2023-01-26T09:51:46.513Z,8.73
2023-01-26T09:54:36.185Z,6.00
2023-01-26T09:57:26.606Z,6.33
2023-01-26T10:00:20.407Z,6.73
2023-01-26T10:03:13.958Z,6.60
2023-01-26T10:06:05.537Z,5.53
2023-01-26T10:09:16.619Z,6.00
2023-01-26T10:12:06.525Z,5.90
2023-01-26T10:14:57.492Z,5.73
2023-01-26T10:17:47.436Z,5.27
2023-01-26T10:20:35.893Z,5.40
2023-01-26T10:23:26.767Z,5.07
2023-01-26T10:26:14.870Z,5.53
2023-01-26T10:29:03.227Z,5.20
2023-01-26T10:31:50.698Z,6.37
2023-01-26T10:34:41.039Z,5.03
2023-01-26T10:37:30.728Z,5.20
2023-01-26T10:40:20.400Z,7.07
2023-01-26T10:43:18.812Z,5.60
2023-01-26T10:46:06.302Z,6.80
2023-01-26T10:48:54.898Z,6.50
2023-01-26T10:51:44.443Z,6.27
2023-01-26T10:54:33.621Z,6.03
2023-01-26T10:57:27.891Z,6.80
2023-01-26T11:00:24.093Z,6.17
2023-01-26T11:03:18.863Z,7.07
2023-01-26T11:10:57.711Z,6.93
2023-01-26T11:13:46.413Z,8.03
2023-01-26T11:16:34.295Z,6.03
2023-01-26T11:19:29.534Z,6.87
2023-01-26T11:22:19.611Z,6.83
2023-01-26T11:25:13.191Z,7.10
2023-01-26T11:28:13.510Z,6.70
2023-01-26T11:31:16.506Z,7.00
2023-01-26T11:34:08.483Z,7.20
2023-01-26T11:41:52.509Z,6.80
2023-01-26T11:44:49.528Z,6.73
2023-01-26T11:47:43.280Z,8.00
2023-01-26T11:50:35.037Z,7.53
2023-01-26T11:53:40.557Z,7.77
2023-01-26T11:56:35.420Z,8.37
2023-01-26T11:59:27.000Z,7.60
2023-01-26T12:02:27.817Z,7.20
2023-01-26T12:05:19.484Z,7.63
2023-01-26T12:08:09.290Z,8.00
2023-01-26T12:11:20.906Z,7.80
2023-01-26T12:14:18.932Z,8.00
2023-01-26T12:17:22.506Z,7.30
2023-01-26T12:20:21.723Z,7.00
2023-01-26T12:23:14.893Z,7.53
2023-01-26T12:26:04.736Z,7.63
2023-01-26T12:28:57.525Z,8.47
2023-01-26T12:31:47.578Z,8.20
2023-01-26T12:34:35.481Z,6.67
2023-01-26T12:37:37.169Z,6.80
2023-01-26T12:40:32.894Z,7.33
2023-01-26T12:43:25.378Z,7.00
2023-01-26T12:46:13.103Z,7.30
2023-01-26T12:49:03.877Z,7.17
2023-01-26T12:51:53.132Z,7.60
2023-01-26T12:54:45.538Z,6.63
2023-01-26T12:57:36.833Z,7.30
2023-01-26T13:00:25.787Z,6.53
2023-01-26T13:03:18.214Z,7.10
2023-01-26T13:06:19.983Z,6.53
2023-01-26T13:09:20.700Z,6.90
2023-01-26T13:12:29.403Z,6.80
2023-01-26T13:15:19.579Z,6.23
2023-01-26T13:18:08.733Z,6.93
2023-01-26T13:20:56.155Z,6.63
2023-01-26T13:23:44.650Z,6.70
2023-01-26T13:26:50.613Z,6.13
2023-01-26T13:29:56.553Z,6.87
2023-01-26T13:32:55.245Z,7.03
2023-01-26T13:35:42.944Z,6.60
2023-01-26T13:38:34.703Z,7.13
2023-01-26T13:41:22.882Z,6.67
2023-01-26T13:44:12.280Z,6.97
2023-01-26T13:47:01.708Z,6.73
2023-01-26T13:49:50.931Z,6.97
2023-01-26T13:52:44.079Z,6.27
2023-01-26T13:55:32.501Z,6.00
2023-01-26T13:58:20.561Z,6.10
2023-01-26T14:01:12.538Z,4.83
2023-01-26T14:04:07.059Z,6.17
2023-01-26T14:06:57.414Z,6.13
2023-01-26T14:09:46.911Z,5.60
2023-01-26T14:12:36.631Z,5.50
2023-01-26T14:15:25.422Z,5.27
2023-01-26T14:18:21.264Z,4.67
2023-01-26T14:21:20.762Z,4.83
2023-01-26T14:24:11.756Z,5.57
2023-01-26T14:26:59.368Z,5.40
2023-01-26T14:29:47.629Z,5.30
2023-01-26T14:32:35.398Z,5.50
2023-01-26T14:35:23.895Z,6.03
2023-01-26T14:38:16.419Z,6.17
2023-01-26T14:41:05.194Z,6.07
2023-01-26T14:43:56.065Z,5.83
2023-01-26T14:46:51.077Z,5.93
2023-01-26T14:49:43.156Z,5.53
2023-01-26T14:52:31.833Z,6.23
2023-01-26T14:55:22.490Z,6.93
2023-01-26T14:58:17.460Z,7.20
2023-01-26T15:01:05.285Z,7.77
2023-01-26T15:03:53.067Z,6.77
2023-01-26T15:06:40.847Z,6.53
2023-01-26T15:09:29.398Z,7.30
2023-01-26T15:12:18.832Z,7.57
2023-01-26T15:15:14.798Z,7.43
2023-01-26T15:18:03.341Z,8.37
2023-01-26T15:21:00.546Z,7.57
2023-01-26T15:23:51.477Z,8.33
2023-01-26T15:26:39.017Z,8.80
2023-01-26T15:29:27.701Z,8.77
2023-01-26T15:32:29.797Z,8.43
2023-01-26T15:35:21.816Z,8.53
2023-01-26T15:38:11.776Z,7.43
2023-01-26T15:40:59.359Z,8.73
2023-01-26T15:43:46.855Z,7.70
2023-01-26T15:46:34.456Z,9.13
2023-01-26T15:49:23.450Z,9.47
2023-01-26T15:52:11.618Z,9.57
2023-01-26T15:54:59.200Z,10.20
2023-01-26T15:57:46.556Z,9.50
2023-01-26T16:00:33.972Z,9.43
2023-01-26T16:03:22.501Z,7.37
2023-01-26T16:06:15.707Z,9.23
2023-01-26T16:09:02.971Z,10.43
2023-01-26T16:11:51.642Z,14.43
2023-01-26T16:14:39.367Z,10.37
2023-01-26T16:17:26.557Z,9.07
2023-01-26T16:20:14.444Z,11.40
2023-01-26T16:23:03.670Z,10.43
2023-01-26T16:25:51.863Z,10.20
2023-01-26T16:28:39.286Z,9.83
2023-01-26T16:31:27.821Z,9.83
2023-01-26T16:34:15.382Z,10.30
2023-01-26T16:37:02.788Z,11.00
2023-01-26T16:39:51.627Z,9.83
2023-01-26T16:42:41.586Z,10.07
2023-01-26T16:45:28.921Z,9.80
2023-01-26T16:48:17.139Z,9.53
2023-01-26T16:51:13.582Z,9.90
2023-01-26T16:54:01.261Z,10.00
2023-01-26T16:56:50.217Z,9.30
2023-01-26T16:59:37.560Z,9.40
2023-01-26T17:02:26.482Z,9.47
2023-01-26T17:05:17.828Z,10.23
2023-01-26T17:08:05.485Z,9.93
2023-01-26T17:11:02.090Z,10.03
2023-01-26T17:13:51.946Z,9.73
2023-01-26T17:16:39.583Z,11.77
2023-01-26T17:19:26.972Z,11.17
2023-01-26T17:22:15.242Z,10.43
2023-01-26T17:25:02.565Z,10.17
2023-01-26T17:27:50.057Z,10.50
2023-01-26T17:30:38.814Z,10.70
2023-01-26T17:33:26.466Z,11.30
2023-01-26T17:36:14.067Z,11.20
2023-01-26T17:39:01.389Z,10.43
2023-01-26T17:41:48.712Z,10.70
2023-01-26T17:44:36.110Z,10.30
2023-01-26T17:47:25.272Z,13.40
2023-01-26T17:50:13.203Z,10.53
2023-01-26T17:53:00.566Z,10.33
2023-01-26T17:55:48.040Z,11.10
2023-01-26T17:58:35.460Z,10.67
2023-01-26T18:01:23.964Z,8.97
2023-01-26T18:04:12.753Z,11.63
2023-01-26T18:07:01.780Z,10.43
2023-01-26T18:09:49.042Z,11.30
2023-01-26T18:12:37.640Z,9.87
2023-01-26T18:15:25.398Z,10.37
2023-01-26T18:18:13.682Z,11.10
2023-01-26T18:21:12.810Z,9.77
2023-01-26T18:24:01.671Z,9.90
2023-01-26T18:26:49.018Z,9.83
2023-01-26T18:29:36.467Z,10.70
2023-01-26T18:32:24.004Z,10.43
2023-01-26T18:35:12.637Z,10.03
2023-01-26T18:38:02.030Z,10.33
2023-01-26T18:40:49.820Z,10.80
2023-01-26T18:43:37.205Z,10.43
2023-01-26T18:46:24.662Z,12.83
2023-01-26T18:49:12.359Z,10.93
2023-01-26T18:51:59.892Z,11.00
2023-01-26T18:54:48.627Z,9.63
2023-01-26T18:57:36.385Z,10.40
2023-01-26T19:00:24.128Z,9.80
2023-01-26T19:03:11.387Z,10.80
2023-01-26T19:05:58.680Z,11.10
2023-01-26T19:08:46.586Z,11.57
2023-01-26T19:11:35.979Z,11.57
2023-01-26T19:14:23.393Z,10.60
2023-01-26T19:17:10.752Z,10.27
2023-01-26T19:19:58.195Z,11.17
2023-01-26T19:22:53.746Z,11.17
2023-01-26T19:25:41.030Z,11.57
2023-01-26T19:28:29.647Z,10.60
2023-01-26T19:31:19.711Z,10.17
2023-01-26T19:34:08.073Z,10.63
2023-01-26T19:36:55.799Z,10.70
2023-01-26T19:39:43.094Z,11.87
2023-01-26T19:42:30.273Z,10.73
2023-01-26T19:45:19.029Z,10.70
2023-01-26T19:48:06.706Z,10.50
2023-01-26T19:51:01.185Z,10.47
2023-01-26T19:53:49.481Z,10.60
2023-01-26T19:56:37.127Z,9.27
2023-01-26T19:59:25.972Z,11.83
2023-01-26T20:02:15.003Z,11.50
2023-01-26T20:05:02.623Z,11.20
2023-01-26T20:07:50.159Z,9.50
2023-01-26T20:10:37.479Z,10.10
2023-01-26T20:13:25.102Z,9.20
2023-01-26T20:16:13.761Z,8.83
2023-01-26T20:19:02.977Z,8.63
2023-01-26T20:21:50.929Z,9.47
2023-01-26T20:24:38.129Z,9.30
2023-01-26T20:27:25.891Z,10.23
2023-01-26T20:30:14.768Z,9.83
2023-01-26T20:33:03.183Z,10.00
2023-01-26T20:35:51.967Z,9.33
2023-01-26T20:38:39.741Z,9.03
2023-01-26T20:41:28.226Z,9.17
2023-01-26T20:44:15.701Z,8.83
2023-01-26T20:47:04.699Z,8.20
2023-01-26T20:49:56.865Z,9.80
2023-01-26T20:52:46.629Z,9.83
2023-01-26T20:55:34.235Z,9.30
2023-01-26T20:58:22.005Z,9.67
2023-01-26T21:01:10.450Z,8.63
2023-01-26T21:03:58.160Z,8.47
2023-01-26T21:06:45.513Z,8.33
2023-01-26T21:09:34.377Z,8.00
2023-01-26T21:12:21.726Z,7.50
2023-01-26T21:15:09.772Z,7.30
2023-01-26T21:17:57.255Z,7.23
2023-01-26T21:20:44.761Z,7.77
2023-01-26T21:23:32.450Z,8.23
2023-01-26T21:26:22.405Z,8.57
2023-01-26T21:29:14.095Z,8.60
2023-01-26T21:32:01.564Z,7.87
2023-01-26T21:34:48.916Z,7.80
2023-01-26T21:37:36.250Z,7.30
2023-01-26T21:40:23.779Z,6.40
2023-01-26T21:43:12.441Z,7.30
2023-01-26T21:46:00.578Z,8.00
2023-01-26T21:48:47.805Z,7.30
2023-01-26T21:51:53.735Z,8.57
2023-01-26T21:54:41.367Z,9.27
2023-01-26T21:57:46.226Z,8.03
2023-01-26T22:00:35.117Z,7.97
2023-01-26T22:03:22.732Z,9.03
2023-01-26T22:06:10.413Z,8.90
2023-01-26T22:08:58.456Z,6.77
2023-01-26T22:11:45.930Z,6.47
2023-01-26T22:14:33.545Z,6.60
2023-01-26T22:17:22.645Z,6.80
2023-01-26T22:20:12.187Z,7.20
2023-01-26T22:22:59.910Z,6.07
2023-01-26T22:25:47.349Z,6.27
2023-01-26T22:28:34.890Z,5.47
2023-01-26T22:31:23.572Z,5.37
2023-01-26T22:34:12.507Z,6.00
2023-01-26T22:37:00.194Z,5.67
2023-01-26T22:39:49.007Z,5.60
2023-01-26T22:42:36.707Z,4.63
2023-01-26T22:45:24.008Z,5.63
2023-01-26T22:48:11.412Z,4.87
2023-01-26T22:51:00.616Z,5.67
2023-01-26T22:53:48.122Z,5.60
2023-01-26T22:56:35.576Z,5.90
2023-01-26T22:59:23.084Z,5.87
2023-01-26T23:02:10.602Z,6.27
2023-01-26T23:04:58.207Z,5.10
2023-01-26T23:07:46.878Z,5.90
2023-01-26T23:10:34.552Z,5.90
2023-01-26T23:13:21.926Z,5.77
2023-01-26T23:16:09.744Z,5.70
2023-01-26T23:18:58.423Z,5.60
2023-01-26T23:21:46.139Z,5.03
2023-01-26T23:24:35.065Z,5.00
2023-01-26T23:27:22.793Z,4.60
2023-01-26T23:30:11.114Z,5.27
2023-01-26T23:32:58.854Z,5.43
2023-01-26T23:35:46.402Z,5.20
2023-01-26T23:38:34.313Z,4.67
2023-01-26T23:41:22.998Z,4.20
2023-01-26T23:44:13.065Z,4.20
2023-01-26T23:47:00.613Z,4.87
2023-01-26T23:49:48.393Z,4.63
2023-01-26T23:52:35.845Z,4.50
2023-01-26T23:55:23.164Z,5.47
2023-01-26T23:58:13.095Z,5.30
